createdAt,value
2022-11-26T00:02:25.570Z,6.81
2022-11-26T00:04:55.112Z,6.85
2022-11-26T00:07:26.520Z,6.82
2022-11-26T00:09:59.268Z,6.82
2022-11-26T00:12:30.069Z,6.74
2022-11-26T00:14:59.415Z,6.73
2022-11-26T00:17:27.725Z,6.72
2022-11-26T00:19:56.075Z,6.80
2022-11-26T00:22:26.614Z,6.79
2022-11-26T00:24:57.126Z,6.89
2022-11-26T00:27:27.591Z,6.91
2022-11-26T00:29:56.662Z,6.89
2022-11-26T00:32:26.587Z,6.89
2022-11-26T00:34:55.075Z,6.94
2022-11-26T00:37:29.351Z,6.92
2022-11-26T00:39:59.088Z,6.93
2022-11-26T00:42:27.427Z,6.98
2022-11-26T00:44:55.760Z,6.98
2022-11-26T00:47:24.081Z,7.00
2022-11-26T00:49:52.386Z,7.03
2022-11-26T00:52:33.551Z,6.96
2022-11-26T00:55:08.216Z,6.98
2022-11-26T00:57:37.181Z,7.00
2022-11-26T01:00:15.764Z,7.00
2022-11-26T01:02:44.337Z,6.96
2022-11-26T01:05:12.858Z,6.91
2022-11-26T01:07:42.031Z,6.92
2022-11-26T01:10:19.306Z,6.89
2022-11-26T01:12:47.761Z,6.98
2022-11-26T01:15:17.309Z,6.93
2022-11-26T01:17:46.077Z,6.92
2022-11-26T01:20:25.376Z,7.06
2022-11-26T01:22:55.696Z,6.98
2022-11-26T01:25:27.268Z,6.99
2022-11-26T01:27:56.163Z,7.05
2022-11-26T01:30:27.640Z,7.05
2022-11-26T01:32:56.064Z,7.04
2022-11-26T01:35:24.712Z,6.97
2022-11-26T01:37:53.003Z,7.06
2022-11-26T01:40:36.913Z,7.18
2022-11-26T01:43:11.244Z,7.09
2022-11-26T01:45:39.445Z,7.12
2022-11-26T01:48:24.525Z,7.06
2022-11-26T01:50:57.260Z,7.09
2022-11-26T01:53:46.622Z,7.10
2022-11-26T01:56:23.159Z,6.98
2022-11-26T01:58:57.550Z,6.99
2022-11-26T02:01:25.995Z,6.98
2022-11-26T02:04:01.502Z,7.05
2022-11-26T02:06:33.561Z,6.94
2022-11-26T02:09:03.481Z,7.00
2022-11-26T02:11:33.289Z,6.98
2022-11-26T02:14:05.729Z,7.01
2022-11-26T02:16:58.631Z,7.03
2022-11-26T02:20:06.821Z,6.97
2022-11-26T02:23:04.925Z,6.96
2022-11-26T02:25:55.052Z,6.99
2022-11-26T02:28:56.401Z,7.01
2022-11-26T02:31:35.021Z,7.06
2022-11-26T02:34:11.927Z,7.04
2022-11-26T02:36:47.276Z,6.97
2022-11-26T02:39:17.051Z,6.98
2022-11-26T02:41:47.923Z,6.96
2022-11-26T02:44:18.421Z,6.94
2022-11-26T02:46:50.895Z,6.99
2022-11-26T02:49:21.992Z,7.07
2022-11-26T02:51:58.410Z,7.03
2022-11-26T02:54:28.319Z,6.99
2022-11-26T02:56:58.277Z,7.02
2022-11-26T02:59:27.115Z,7.12
2022-11-26T03:02:01.152Z,7.11
2022-11-26T03:04:32.155Z,7.10
2022-11-26T03:07:04.478Z,7.05
2022-11-26T03:09:41.236Z,7.09
2022-11-26T03:12:10.008Z,7.10
2022-11-26T03:14:38.744Z,7.13
2022-11-26T03:17:08.571Z,7.16
2022-11-26T03:19:37.001Z,7.13
2022-11-26T03:22:05.907Z,7.17
2022-11-26T03:24:34.390Z,7.20
2022-11-26T03:27:02.822Z,7.20
2022-11-26T03:29:31.225Z,7.13
2022-11-26T03:32:00.039Z,7.12
2022-11-26T03:34:34.966Z,7.19
2022-11-26T03:37:03.293Z,7.24
2022-11-26T03:39:31.645Z,7.22
2022-11-26T03:42:00.009Z,7.24
2022-11-26T03:44:28.402Z,7.29
2022-11-26T03:46:56.760Z,7.27
2022-11-26T03:49:25.186Z,7.25
2022-11-26T03:51:54.909Z,7.16
2022-11-26T03:54:23.371Z,7.13
2022-11-26T03:56:51.716Z,7.14
2022-11-26T03:59:20.061Z,7.25
2022-11-26T04:01:48.422Z,7.29
2022-11-26T04:04:17.206Z,7.27
2022-11-26T04:06:45.586Z,7.36
2022-11-26T04:09:15.299Z,7.22
2022-11-26T04:11:43.637Z,7.28
2022-11-26T04:14:12.001Z,7.27
2022-11-26T04:16:40.456Z,7.20
2022-11-26T04:19:08.946Z,7.28
2022-11-26T04:21:37.326Z,7.31
2022-11-26T04:24:06.252Z,7.31
2022-11-26T04:26:35.977Z,7.36
2022-11-26T04:29:04.496Z,7.39
2022-11-26T04:31:33.036Z,7.38
2022-11-26T04:34:01.401Z,7.28
2022-11-26T04:36:29.717Z,7.35
2022-11-26T04:38:58.492Z,7.42
2022-11-26T04:41:26.984Z,7.47
2022-11-26T04:43:56.649Z,7.50
2022-11-26T04:46:24.978Z,7.42
2022-11-26T04:48:53.334Z,7.49
2022-11-26T04:51:21.687Z,7.44
2022-11-26T04:53:51.404Z,7.42
2022-11-26T04:56:22.994Z,7.43
2022-11-26T04:58:51.693Z,7.35
2022-11-26T05:01:21.400Z,7.33
2022-11-26T05:03:50.607Z,7.38
2022-11-26T05:06:18.949Z,7.38
2022-11-26T05:08:47.291Z,7.35
2022-11-26T05:11:15.674Z,7.35
2022-11-26T05:13:44.198Z,7.32
2022-11-26T05:16:12.551Z,7.34
2022-11-26T05:18:42.340Z,7.42
2022-11-26T05:21:10.705Z,7.35
2022-11-26T05:23:39.022Z,7.29
2022-11-26T05:26:07.500Z,7.29
2022-11-26T05:28:35.834Z,7.24
2022-11-26T05:31:05.125Z,7.32
2022-11-26T05:33:33.473Z,7.42
2022-11-26T05:36:03.170Z,7.40
2022-11-26T05:38:31.568Z,7.43
2022-11-26T05:40:59.882Z,7.41
2022-11-26T05:43:29.099Z,7.34
2022-11-26T05:45:57.456Z,7.35
2022-11-26T05:48:25.790Z,7.33
2022-11-26T05:50:58.340Z,7.37
2022-11-26T05:53:28.446Z,7.33
2022-11-26T05:55:57.063Z,7.23
2022-11-26T05:58:25.522Z,7.27
2022-11-26T06:00:53.872Z,7.31
2022-11-26T06:03:22.372Z,7.22
2022-11-26T06:05:50.828Z,7.24
2022-11-26T06:08:19.288Z,7.20
2022-11-26T06:10:48.977Z,7.16
2022-11-26T06:13:17.368Z,7.17
2022-11-26T06:15:45.745Z,7.18
2022-11-26T06:18:14.071Z,7.25
2022-11-26T06:20:42.377Z,7.31
2022-11-26T06:23:10.850Z,7.23
2022-11-26T06:25:40.989Z,7.29
2022-11-26T06:28:10.692Z,7.28
2022-11-26T06:30:38.985Z,7.32
2022-11-26T06:33:07.291Z,7.23
2022-11-26T06:35:35.766Z,7.27
2022-11-26T06:38:04.196Z,7.23
2022-11-26T06:40:32.504Z,7.22
2022-11-26T06:43:00.943Z,7.26
2022-11-26T06:45:30.960Z,7.26
2022-11-26T06:47:59.299Z,7.31
2022-11-26T06:50:27.642Z,7.32
2022-11-26T06:52:56.168Z,7.30
2022-11-26T06:55:24.495Z,7.34
2022-11-26T06:57:53.324Z,7.27
2022-11-26T07:00:22.255Z,7.28
2022-11-26T07:02:52.131Z,7.22
2022-11-26T07:05:20.497Z,7.31
2022-11-26T07:07:48.866Z,7.31
2022-11-26T07:10:17.666Z,7.33
2022-11-26T07:12:45.995Z,7.29
2022-11-26T07:15:14.309Z,7.38
2022-11-26T07:17:42.769Z,7.37
2022-11-26T07:20:13.906Z,7.44
2022-11-26T07:22:42.256Z,7.44
2022-11-26T07:25:12.965Z,7.32
2022-11-26T07:27:42.065Z,7.40
2022-11-26T07:30:11.406Z,7.33
2022-11-26T07:32:40.034Z,7.35
2022-11-26T07:35:08.839Z,7.28
2022-11-26T07:37:38.560Z,7.19
2022-11-26T07:40:08.217Z,7.32
2022-11-26T07:42:36.660Z,7.32
2022-11-26T07:45:05.525Z,7.26
2022-11-26T07:47:34.180Z,7.25
2022-11-26T07:50:02.726Z,7.26
2022-11-26T07:52:31.145Z,7.22
2022-11-26T07:55:00.946Z,7.23
2022-11-26T07:57:29.342Z,7.18
2022-11-26T07:59:57.849Z,7.29
2022-11-26T08:02:26.343Z,7.34
2022-11-26T08:04:54.775Z,7.27
2022-11-26T08:07:28.982Z,7.24
2022-11-26T08:09:57.945Z,7.31
2022-11-26T08:12:28.025Z,7.35
2022-11-26T08:14:56.338Z,7.30
2022-11-26T08:17:24.694Z,7.31
2022-11-26T08:19:53.149Z,7.39
2022-11-26T08:22:21.460Z,7.40
2022-11-26T08:24:50.673Z,7.44
2022-11-26T08:27:18.996Z,7.49
2022-11-26T08:29:48.686Z,7.46
2022-11-26T08:32:17.048Z,7.46
2022-11-26T08:34:45.378Z,7.51
2022-11-26T08:37:13.740Z,7.38
2022-11-26T08:39:42.052Z,7.32
2022-11-26T08:42:10.377Z,7.35
2022-11-26T08:44:38.816Z,7.30
2022-11-26T08:47:08.612Z,7.41
2022-11-26T08:49:37.167Z,7.33
2022-11-26T08:52:05.967Z,7.42
2022-11-26T08:54:34.364Z,7.42
2022-11-26T08:57:02.709Z,7.42
2022-11-26T08:59:31.039Z,7.44
2022-11-26T09:01:59.394Z,7.45
2022-11-26T09:04:29.078Z,7.49
2022-11-26T09:06:57.380Z,7.43
2022-11-26T09:09:25.773Z,7.43
2022-11-26T09:11:58.708Z,7.44
2022-11-26T09:14:28.767Z,7.42
2022-11-26T09:16:58.577Z,7.42
2022-11-26T09:19:30.073Z,7.54
2022-11-26T09:21:59.281Z,7.57
2022-11-26T09:24:27.668Z,7.63
2022-11-26T09:26:56.044Z,7.66
2022-11-26T09:29:24.925Z,7.65
2022-11-26T09:32:23.387Z,7.65
2022-11-26T09:34:43.294Z,7.58
2022-11-26T09:37:11.605Z,7.53
2022-11-26T09:39:40.076Z,7.56
2022-11-26T09:42:09.802Z,7.52
2022-11-26T09:44:53.566Z,7.50
2022-11-26T09:47:24.057Z,7.57
2022-11-26T09:50:04.747Z,7.46
2022-11-26T09:52:39.321Z,7.49
2022-11-26T09:55:34.827Z,7.54
2022-11-26T09:58:13.180Z,7.50
2022-11-26T10:00:45.348Z,7.53
2022-11-26T10:03:16.368Z,7.61
2022-11-26T10:05:54.350Z,7.59
2022-11-26T10:09:01.112Z,7.59
2022-11-26T10:11:36.192Z,7.63
2022-11-26T10:14:15.609Z,7.58
2022-11-26T10:16:52.958Z,7.58
2022-11-26T10:19:28.565Z,7.64
2022-11-26T10:22:04.259Z,7.68
2022-11-26T10:24:38.311Z,7.64
2022-11-26T10:27:11.813Z,7.64
2022-11-26T10:29:43.864Z,7.65
2022-11-26T10:32:16.267Z,7.70
2022-11-26T10:34:51.156Z,7.65
2022-11-26T10:37:23.137Z,7.65
2022-11-26T10:40:00.909Z,7.54
2022-11-26T10:42:41.580Z,7.60
2022-11-26T10:45:20.595Z,7.54
2022-11-26T10:47:49.201Z,7.42
2022-11-26T10:53:22.153Z,7.44
2022-11-26T10:55:52.781Z,7.42
2022-11-26T10:58:23.871Z,7.44
2022-11-26T11:01:02.250Z,7.45
2022-11-26T11:06:28.912Z,7.28
2022-11-26T11:08:58.935Z,7.17
2022-11-26T11:11:29.384Z,7.15
2022-11-26T11:13:58.713Z,7.20
2022-11-26T11:16:29.834Z,7.11
2022-11-26T11:19:00.177Z,7.10
2022-11-26T11:21:31.298Z,7.09
2022-11-26T11:24:16.500Z,7.05
2022-11-26T11:26:47.437Z,7.06
2022-11-26T11:29:34.012Z,7.07
2022-11-26T11:32:05.581Z,7.14
2022-11-26T11:34:38.247Z,7.26
2022-11-26T11:37:15.100Z,7.16
2022-11-26T11:39:45.271Z,7.17
2022-11-26T11:42:23.939Z,7.19
2022-11-26T11:44:53.337Z,7.18
2022-11-26T11:47:31.806Z,7.20
2022-11-26T11:50:17.788Z,7.21
2022-11-26T11:52:55.515Z,7.20
2022-11-26T11:55:36.285Z,7.19
2022-11-26T11:58:32.256Z,7.22
2022-11-26T12:01:07.865Z,7.21
2022-11-26T12:04:08.400Z,7.22
2022-11-26T12:06:47.020Z,7.26
2022-11-26T12:09:26.556Z,7.34
2022-11-26T12:12:01.102Z,7.37
2022-11-26T12:14:35.822Z,7.44
2022-11-26T12:17:08.120Z,7.39
2022-11-26T12:19:41.758Z,7.37
2022-11-26T12:22:18.845Z,7.37
2022-11-26T12:24:52.138Z,7.39
2022-11-26T12:27:32.682Z,7.39
2022-11-26T12:30:04.905Z,7.41
2022-11-26T12:32:39.592Z,7.46
2022-11-26T12:35:15.025Z,7.56
2022-11-26T12:37:44.049Z,7.54
2022-11-26T12:40:26.167Z,7.62
2022-11-26T12:42:59.803Z,7.53
2022-11-26T12:45:41.452Z,7.52
2022-11-26T12:48:23.158Z,7.60
2022-11-26T12:50:55.981Z,7.55
2022-11-26T12:53:33.895Z,7.67
2022-11-26T12:56:10.543Z,7.68
2022-11-26T12:58:49.812Z,7.67
2022-11-26T13:01:18.404Z,7.68
2022-11-26T13:03:46.929Z,7.76
2022-11-26T13:06:26.316Z,7.68
2022-11-26T13:09:02.954Z,7.79
2022-11-26T13:11:44.073Z,7.65
2022-11-26T13:14:21.366Z,7.66
2022-11-26T13:16:56.221Z,7.60
2022-11-26T13:19:33.472Z,7.60
2022-11-26T13:22:26.105Z,7.59
2022-11-26T13:25:09.995Z,7.66
2022-11-26T13:27:51.113Z,7.75
2022-11-26T13:30:25.565Z,7.69
2022-11-26T13:33:25.941Z,7.59
2022-11-26T13:36:21.263Z,7.58
2022-11-26T13:39:03.108Z,7.52
2022-11-26T13:41:55.350Z,7.58
2022-11-26T13:44:51.742Z,7.58
2022-11-26T13:47:25.422Z,7.52
2022-11-26T13:50:00.269Z,7.43
2022-11-26T13:52:35.314Z,7.52
2022-11-26T13:55:07.631Z,7.44
2022-11-26T13:57:39.791Z,7.50
2022-11-26T14:00:10.406Z,7.65
2022-11-26T14:02:44.856Z,7.55
2022-11-26T14:05:15.578Z,7.48
2022-11-26T14:07:45.396Z,7.55
2022-11-26T14:10:41.217Z,7.58
2022-11-26T14:13:17.169Z,7.54
2022-11-26T14:15:54.184Z,7.44
2022-11-26T14:19:00.567Z,7.45
2022-11-26T14:21:30.503Z,7.45
2022-11-26T14:24:00.948Z,7.53
2022-11-26T14:26:34.231Z,7.52
2022-11-26T14:29:13.306Z,7.46
2022-11-26T14:31:49.900Z,7.47
2022-11-26T14:34:28.395Z,7.45
2022-11-26T14:36:58.837Z,7.48
2022-11-26T14:39:28.330Z,7.42
2022-11-26T14:42:05.313Z,7.45
2022-11-26T14:44:34.563Z,7.44
2022-11-26T14:47:11.821Z,7.39
2022-11-26T14:49:46.017Z,7.40
2022-11-26T14:52:19.844Z,7.35
2022-11-26T14:54:51.633Z,7.38
2022-11-26T14:57:24.442Z,7.35
2022-11-26T14:59:57.372Z,7.35
2022-11-26T15:02:27.777Z,7.42
2022-11-26T15:05:02.678Z,7.36
2022-11-26T15:07:32.532Z,7.31
2022-11-26T15:10:05.903Z,7.28
2022-11-26T15:12:36.126Z,7.31
2022-11-26T15:15:06.156Z,7.38
2022-11-26T15:17:35.682Z,7.41
2022-11-26T15:20:09.647Z,7.37
2022-11-26T15:22:42.111Z,7.32
2022-11-26T15:25:17.722Z,7.39
2022-11-26T15:27:54.913Z,7.29
2022-11-26T15:30:25.159Z,7.33
2022-11-26T15:33:04.897Z,7.31
2022-11-26T15:35:36.261Z,7.26
2022-11-26T15:38:08.648Z,7.19
2022-11-26T15:40:47.520Z,7.18
2022-11-26T15:43:23.375Z,7.19
2022-11-26T15:45:54.820Z,7.12
2022-11-26T15:48:50.030Z,7.14
2022-11-26T15:51:24.321Z,7.22
2022-11-26T15:53:53.424Z,7.15
2022-11-26T15:56:26.253Z,7.19
2022-11-26T15:58:58.133Z,7.06
2022-11-26T16:01:29.869Z,7.18
2022-11-26T16:04:00.114Z,7.10
2022-11-26T16:06:33.862Z,7.10
2022-11-26T16:09:06.440Z,7.03
2022-11-26T16:11:36.935Z,7.02
2022-11-26T16:14:28.364Z,7.05
2022-11-26T16:16:58.102Z,7.02
2022-11-26T16:19:28.049Z,7.02
2022-11-26T16:21:58.306Z,7.01
2022-11-26T16:24:31.880Z,7.06
2022-11-26T16:27:02.556Z,7.06
2022-11-26T16:29:31.677Z,7.09
2022-11-26T16:32:00.438Z,7.03
2022-11-26T16:34:29.643Z,6.99
2022-11-26T16:37:05.557Z,6.99
2022-11-26T16:42:24.556Z,7.01
2022-11-26T16:44:53.009Z,7.12
2022-11-26T16:47:25.024Z,7.13
2022-11-26T16:49:53.792Z,7.23
2022-11-26T16:52:23.940Z,7.13
2022-11-26T16:54:52.816Z,7.15
2022-11-26T16:57:23.765Z,7.17
2022-11-26T16:59:54.949Z,7.16
2022-11-26T17:02:24.753Z,7.16
2022-11-26T17:04:53.190Z,7.30
2022-11-26T17:07:27.255Z,7.31
2022-11-26T17:09:56.061Z,7.27
2022-11-26T17:12:25.804Z,7.24
2022-11-26T17:14:54.250Z,7.22
2022-11-26T17:17:25.401Z,7.19
2022-11-26T17:19:54.018Z,7.17
2022-11-26T17:22:22.382Z,7.18
2022-11-26T17:24:52.522Z,7.20
2022-11-26T17:27:23.405Z,7.22
2022-11-26T17:29:51.799Z,7.22
2022-11-26T17:32:21.037Z,7.26
2022-11-26T17:34:49.664Z,7.28
2022-11-26T17:37:21.311Z,7.27
2022-11-26T17:39:50.103Z,7.37
2022-11-26T17:42:20.485Z,7.26
2022-11-26T17:44:49.450Z,7.38
2022-11-26T17:47:19.318Z,7.39
2022-11-26T17:49:48.469Z,7.41
2022-11-26T17:52:17.692Z,7.30
2022-11-26T17:54:46.790Z,7.26
2022-11-26T17:57:17.256Z,7.24
2022-11-26T17:59:47.098Z,7.22
2022-11-26T18:02:15.517Z,7.23
2022-11-26T18:04:43.960Z,7.20
2022-11-26T18:07:15.135Z,7.27
2022-11-26T18:09:43.659Z,7.19
2022-11-26T18:12:23.142Z,7.14
2022-11-26T18:14:55.144Z,7.12
2022-11-26T18:17:24.173Z,7.14
2022-11-26T18:19:52.498Z,7.14
2022-11-26T18:22:23.602Z,7.13
2022-11-26T18:24:56.912Z,7.12
2022-11-26T18:27:28.133Z,7.12
2022-11-26T18:29:57.865Z,7.23
2022-11-26T18:32:26.214Z,7.13
2022-11-26T18:34:54.553Z,7.10
2022-11-26T18:37:22.896Z,7.07
2022-11-26T18:39:51.286Z,7.05
2022-11-26T18:45:12.789Z,7.04
2022-11-26T18:47:41.164Z,7.02
2022-11-26T18:50:10.552Z,7.03
2022-11-26T18:52:38.887Z,7.02
2022-11-26T18:55:08.671Z,7.00
2022-11-26T18:57:37.205Z,6.97
2022-11-26T19:00:07.441Z,6.97
2022-11-26T19:02:38.567Z,7.02
2022-11-26T19:05:08.045Z,6.98
2022-11-26T19:07:36.496Z,7.05
2022-11-26T19:10:05.385Z,7.03
2022-11-26T19:12:34.039Z,7.00
2022-11-26T19:15:03.841Z,6.99
2022-11-26T19:17:32.296Z,6.97
2022-11-26T19:20:02.001Z,7.05
2022-11-26T19:22:30.341Z,7.01
2022-11-26T19:24:58.831Z,7.01
2022-11-26T19:27:27.167Z,7.00
2022-11-26T19:29:55.512Z,7.04
2022-11-26T19:32:24.370Z,7.04
2022-11-26T19:34:52.759Z,7.02
2022-11-26T19:37:22.494Z,7.01
2022-11-26T19:39:50.831Z,7.00
2022-11-26T19:42:19.349Z,7.03
2022-11-26T19:44:47.723Z,7.01
2022-11-26T19:47:16.099Z,7.01
2022-11-26T19:49:44.673Z,7.03
2022-11-26T19:52:13.021Z,7.01
2022-11-26T19:54:43.124Z,7.00
2022-11-26T19:57:11.737Z,6.99
2022-11-26T19:59:40.501Z,7.00
2022-11-26T20:02:09.254Z,7.01
2022-11-26T20:04:37.909Z,7.05
2022-11-26T20:07:06.696Z,7.05
2022-11-26T20:09:35.157Z,7.03
2022-11-26T20:12:05.282Z,7.07
2022-11-26T20:14:33.887Z,7.06
2022-11-26T20:17:02.731Z,7.09
2022-11-26T20:19:31.362Z,7.10
2022-11-26T20:21:59.829Z,7.09
2022-11-26T20:24:28.257Z,7.05
2022-11-26T20:26:56.683Z,7.07
2022-11-26T20:29:26.533Z,7.02
2022-11-26T20:31:55.062Z,7.00
2022-11-26T20:34:26.091Z,6.99
2022-11-26T20:36:54.842Z,6.95
2022-11-26T20:39:24.658Z,6.93
2022-11-26T20:41:53.040Z,6.90
2022-11-26T20:44:23.076Z,6.89
2022-11-26T20:46:52.921Z,6.89
2022-11-26T20:49:21.395Z,6.83
2022-11-26T20:51:49.910Z,6.86
2022-11-26T20:54:18.223Z,6.87
2022-11-26T20:56:46.732Z,6.88
2022-11-26T20:59:15.077Z,6.89
2022-11-26T21:01:43.460Z,6.99
2022-11-26T21:04:13.230Z,7.00
2022-11-26T21:06:43.716Z,6.95
2022-11-26T21:09:13.852Z,6.92
2022-11-26T21:11:42.229Z,6.89
2022-11-26T21:14:15.138Z,6.89
2022-11-26T21:16:44.348Z,6.91
2022-11-26T21:19:14.160Z,6.92
2022-11-26T21:21:42.632Z,6.95
2022-11-26T21:24:11.048Z,7.01
2022-11-26T21:26:39.764Z,7.05
2022-11-26T21:29:08.244Z,7.03
2022-11-26T21:31:37.110Z,7.02
2022-11-26T21:34:07.959Z,6.98
2022-11-26T21:36:37.896Z,7.02
2022-11-26T21:39:06.589Z,7.01
2022-11-26T21:41:35.532Z,6.97
2022-11-26T21:44:04.251Z,6.96
2022-11-26T21:46:38.298Z,6.96
2022-11-26T21:49:07.464Z,6.96
2022-11-26T21:51:37.093Z,6.99
2022-11-26T21:54:05.790Z,6.98
2022-11-26T21:56:34.123Z,7.07
2022-11-26T21:59:02.848Z,7.06
2022-11-26T22:01:32.851Z,7.05
2022-11-26T22:04:03.365Z,7.02
2022-11-26T22:06:32.072Z,7.01
2022-11-26T22:09:01.807Z,7.01
2022-11-26T22:11:32.713Z,7.01
2022-11-26T22:14:01.060Z,7.00
2022-11-26T22:16:30.922Z,7.04
2022-11-26T22:19:00.816Z,7.00
2022-11-26T22:21:30.725Z,7.02
2022-11-26T22:24:02.148Z,7.03
2022-11-26T22:26:31.585Z,7.09
2022-11-26T22:29:00.372Z,7.16
2022-11-26T22:31:30.418Z,7.13
2022-11-26T22:34:00.837Z,7.14
2022-11-26T22:36:29.664Z,7.15
2022-11-26T22:38:58.635Z,7.15
2022-11-26T22:41:28.373Z,7.12
2022-11-26T22:43:56.706Z,7.15
2022-11-26T22:46:25.254Z,7.21
2022-11-26T22:48:55.256Z,7.14
2022-11-26T22:51:24.626Z,7.11
2022-11-26T22:53:54.517Z,7.07
2022-11-26T22:56:23.578Z,7.08
2022-11-26T22:58:53.790Z,7.04
2022-11-26T23:01:23.984Z,7.01
2022-11-26T23:03:54.131Z,7.00
2022-11-26T23:06:24.454Z,6.99
2022-11-26T23:08:53.804Z,7.02
2022-11-26T23:11:24.082Z,6.98
2022-11-26T23:13:54.869Z,6.97
2022-11-26T23:16:24.987Z,6.97
2022-11-26T23:18:54.871Z,6.95
2022-11-26T23:21:25.296Z,6.96
2022-11-26T23:23:53.711Z,6.99
2022-11-26T23:26:27.125Z,6.95
2022-11-26T23:28:58.321Z,6.98
2022-11-26T23:31:28.647Z,6.99
2022-11-26T23:33:57.542Z,6.96
2022-11-26T23:36:27.170Z,6.97
2022-11-26T23:38:56.383Z,6.94
2022-11-26T23:41:24.748Z,6.94
2022-11-26T23:43:53.076Z,6.94
2022-11-26T23:46:25.200Z,6.97
2022-11-26T23:48:54.124Z,6.97
2022-11-26T23:51:24.566Z,6.96
2022-11-26T23:53:54.144Z,6.95
2022-11-26T23:56:24.424Z,6.95
2022-11-26T23:58:54.616Z,6.96
